Time;durP1;ratioP1;P1;durP2;ratioP2;P2;SDS_P1;SDS_P2;PMS_P1;PMS_P2;Temp;Humidity;BMP_temperature;BMP_pressure;BME280_temperature;BME280_humidity;BME280_pressure;Samples;Min_cycle;Max_cycle;Signal;HPM_P1;HPM_P2
2022/10/03 00:00:31;;;;;;;8.65;1.55;;;;;;;;;;5093540;28;20053;-78
2022/10/03 00:03:19;;;;;;;7.75;1.40;;;;;;;;;;5092650;28;20032;-77
2022/10/03 00:05:52;;;;;;;8.90;1.50;;;;;;;;;;5091277;28;20447;-76
2022/10/03 00:08:26;;;;;;;12.13;1.92;;;;;;;;;;5090687;28;20048;-78
2022/10/03 00:11:19;;;;;;;12.50;1.48;;;;;;;;;;5092467;28;20024;-77
2022/10/03 00:14:02;;;;;;;6.65;1.30;;;;;;;;;;5091997;28;20342;-77
2022/10/03 00:17:03;;;;;;;6.13;1.40;;;;;;;;;;5092468;28;20483;-78
2022/10/03 00:19:50;;;;;;;6.70;1.50;;;;;;;;;;5090369;28;20024;-77
2022/10/03 00:22:31;;;;;;;5.95;1.55;;;;;;;;;;5091036;28;20024;-77
2022/10/03 00:25:11;;;;;;;8.18;1.55;;;;;;;;;;5092712;28;20076;-78
2022/10/03 00:27:44;;;;;;;6.38;1.50;;;;;;;;;;5090922;28;20434;-78
2022/10/03 00:30:21;;;;;;;6.45;1.52;;;;;;;;;;5090546;28;20036;-77
2022/10/03 00:33:23;;;;;;;9.93;1.42;;;;;;;;;;5091777;28;20114;-78
2022/10/03 00:36:06;;;;;;;9.75;1.60;;;;;;;;;;5092220;28;20053;-78
2022/10/03 00:38:58;;;;;;;5.22;1.25;;;;;;;;;;5092188;28;20067;-77
2022/10/03 00:41:52;;;;;;;10.15;1.42;;;;;;;;;;5091899;28;20020;-79
2022/10/03 00:44:45;;;;;;;5.97;1.85;;;;;;;;;;5091912;28;20126;-77
2022/10/03 00:47:39;;;;;;;11.00;1.92;;;;;;;;;;5091984;28;20032;-77
2022/10/03 00:50:28;;;;;;;9.73;1.60;;;;;;;;;;5091975;28;20024;-78
2022/10/03 00:53:19;;;;;;;11.18;1.50;;;;;;;;;;5092274;28;20038;-79
2022/10/03 00:56:14;;;;;;;6.28;1.67;;;;;;;;;;5092872;28;20461;-79
2022/10/03 00:59:01;;;;;;;8.05;1.63;;;;;;;;;;5091358;28;20024;-78
2022/10/03 01:01:26;;;;;;;16.75;1.73;;;;;;;;;;5093023;28;20020;-78
2022/10/03 01:04:17;;;;;;;9.63;1.80;;;;;;;;;;5091156;28;20031;-79
2022/10/03 01:06:52;;;;;;;11.05;1.50;;;;;;;;;;5091717;28;20708;-79
2022/10/03 01:09:54;;;;;;;6.72;1.52;;;;;;;;;;5092968;28;20024;-78
2022/10/03 01:12:34;;;;;;;15.35;1.70;;;;;;;;;;5090994;28;20480;-79
2022/10/03 01:15:02;;;;;;;11.20;1.50;;;;;;;;;;5092623;28;20035;-78
2022/10/03 01:18:12;;;;;;;10.18;1.67;;;;;;;;;;5092760;28;20024;-78
2022/10/03 01:20:44;;;;;;;13.90;1.85;;;;;;;;;;5092652;28;20040;-78
2022/10/03 01:23:46;;;;;;;5.97;1.55;;;;;;;;;;5091461;28;20028;-78
2022/10/03 01:26:25;;;;;;;8.32;1.33;;;;;;;;;;5091821;28;20037;-78
2022/10/03 01:32:02;;;;;;;9.00;1.60;;;;;;;;;;5092447;28;20039;-78
2022/10/03 01:34:55;;;;;;;8.00;1.35;;;;;;;;;;5092113;28;20070;-79
2022/10/03 01:37:50;;;;;;;6.25;1.30;;;;;;;;;;5092133;28;20024;-77
2022/10/03 01:40:30;;;;;;;;;;;;;;;;;;5093035;28;20032;-78
2022/10/03 01:43:19;;;;;;;8.40;1.50;;;;;;;;;;5092718;28;19912;-78
2022/10/03 01:45:46;;;;;;;10.85;1.75;;;;;;;;;;5094991;28;20035;-78
2022/10/03 01:48:35;;;;;;;12.52;2.15;;;;;;;;;;5095113;28;20047;-78
2022/10/03 01:51:20;;;;;;;14.63;1.83;;;;;;;;;;5094273;28;20496;-78
2022/10/03 01:54:04;;;;;;;13.68;1.73;;;;;;;;;;5095445;28;20032;-79
2022/10/03 01:56:41;;;;;;;11.80;1.55;;;;;;;;;;5095485;28;20024;-78
2022/10/03 01:59:29;;;;;;;7.15;1.20;;;;;;;;;;5095622;28;20370;-77
2022/10/03 02:02:03;;;;;;;8.85;1.60;;;;;;;;;;5095724;28;20047;-78
2022/10/03 02:04:40;;;;;;;12.57;1.92;;;;;;;;;;5095737;28;20020;-78
2022/10/03 02:07:28;;;;;;;8.85;1.40;;;;;;;;;;5093947;28;20024;-79
2022/10/03 02:10:15;;;;;;;8.32;1.52;;;;;;;;;;5095316;28;20425;-78
2022/10/03 02:13:08;;;;;;;12.68;1.58;;;;;;;;;;5095201;28;20027;-79
2022/10/03 02:15:53;;;;;;;12.48;1.30;;;;;;;;;;5094280;28;20024;-78
2022/10/03 02:18:44;;;;;;;9.90;1.75;;;;;;;;;;5094939;28;20043;-78
2022/10/03 02:21:31;;;;;;;7.97;1.30;;;;;;;;;;5095209;28;20028;-78
2022/10/03 02:24:16;;;;;;;11.63;1.60;;;;;;;;;;5095615;28;20089;-79
2022/10/03 02:27:00;;;;;;;8.75;1.40;;;;;;;;;;5094237;28;20031;-78
2022/10/03 02:29:38;;;;;;;;;;;;;;;;;;5093997;28;20481;-79
2022/10/03 02:32:50;;;;;;;12.75;1.67;;;;;;;;;;5094708;28;19908;-78
2022/10/03 02:35:34;;;;;;;8.35;1.55;;;;;;;;;;5094960;28;20477;-78
2022/10/03 02:38:33;;;;;;;9.00;1.65;;;;;;;;;;5095019;28;20024;-78
2022/10/03 02:41:20;;;;;;;3.50;1.00;;;;;;;;;;5095425;28;20048;-78
2022/10/03 02:44:16;;;;;;;11.10;1.90;;;;;;;;;;5094770;28;20027;-78
2022/10/03 02:47:24;;;;;;;11.27;1.70;;;;;;;;;;5093814;28;20504;-78
2022/10/03 02:50:26;;;;;;;12.32;1.50;;;;;;;;;;5093333;28;20028;-78
2022/10/03 02:53:29;;;;;;;8.23;1.95;;;;;;;;;;5095398;28;20020;-78
2022/10/03 02:56:32;;;;;;;11.85;1.75;;;;;;;;;;5093486;28;20024;-78
2022/10/03 02:59:25;;;;;;;11.73;1.70;;;;;;;;;;5094532;28;20066;-78
2022/10/03 03:02:15;;;;;;;10.00;1.70;;;;;;;;;;5094901;28;20028;-78
2022/10/03 03:04:50;;;;;;;10.35;1.67;;;;;;;;;;5093092;28;20032;-78
2022/10/03 03:07:49;;;;;;;10.20;1.90;;;;;;;;;;5095187;28;20032;-78
2022/10/03 03:10:52;;;;;;;10.93;1.60;;;;;;;;;;5095052;28;20026;-78
2022/10/03 03:14:02;;;;;;;17.70;3.67;;;;;;;;;;5093310;28;20059;-78
2022/10/03 03:16:43;;;;;;;8.55;1.45;;;;;;;;;;5015639;28;20032;-78
2022/10/03 03:19:56;;;;;;;13.43;1.88;;;;;;;;;;5094752;28;20143;-78
2022/10/03 03:22:45;;;;;;;11.55;2.15;;;;;;;;;;5062895;28;20047;-77
2022/10/03 03:25:29;;;;;;;9.77;1.90;;;;;;;;;;5092867;28;20023;-78
2022/10/03 03:28:10;;;;;;;11.23;2.20;;;;;;;;;;5093094;28;20023;-78
2022/10/03 03:30:55;;;;;;;13.65;2.30;;;;;;;;;;5093192;28;20016;-77
2022/10/03 03:33:52;;;;;;;8.43;2.00;;;;;;;;;;5093191;28;20564;-78
2022/10/03 03:36:40;;;;;;;11.43;2.20;;;;;;;;;;5093292;28;20150;-78
2022/10/03 03:39:27;;;;;;;12.55;2.30;;;;;;;;;;5091624;28;20389;-78
2022/10/03 03:42:22;;;;;;;13.13;2.08;;;;;;;;;;5093431;28;20028;-78
2022/10/03 03:45:03;;;;;;;9.38;1.92;;;;;;;;;;5094008;28;20024;-78
2022/10/03 03:47:46;;;;;;;14.98;2.28;;;;;;;;;;5094249;28;20515;-78
2022/10/03 03:50:21;;;;;;;7.85;2.05;;;;;;;;;;5097005;28;20055;-78
2022/10/03 03:53:12;;;;;;;10.85;1.67;;;;;;;;;;5098312;28;20073;-77
2022/10/03 03:56:02;;;;;;;10.80;2.03;;;;;;;;;;5098119;28;20534;-79
2022/10/03 03:58:39;;;;;;;7.22;2.15;;;;;;;;;;5098060;28;20069;-78
2022/10/03 04:01:04;;;;;;;13.15;2.60;;;;;;;;;;5097855;28;20419;-78
2022/10/03 04:03:55;;;;;;;9.27;1.87;;;;;;;;;;5097873;28;20031;-77
2022/10/03 04:06:45;;;;;;;8.40;2.25;;;;;;;;;;5096526;28;20263;-78
2022/10/03 04:09:31;;;;;;;7.85;2.00;;;;;;;;;;5097721;28;20016;-78
2022/10/03 04:12:16;;;;;;;13.80;2.33;;;;;;;;;;5096469;28;20024;-78
2022/10/03 04:14:53;;;;;;;9.40;1.90;;;;;;;;;;5096099;28;20397;-77
2022/10/03 04:20:44;;;;;;;11.93;2.60;;;;;;;;;;5097845;28;20039;-79
2022/10/03 04:23:24;;;;;;;10.27;2.10;;;;;;;;;;5095990;28;20028;-78
2022/10/03 04:26:20;;;;;;;9.75;2.05;;;;;;;;;;5097689;28;20031;-78
2022/10/03 04:29:17;;;;;;;9.30;1.95;;;;;;;;;;5095861;28;20020;-78
2022/10/03 04:32:01;;;;;;;8.73;1.95;;;;;;;;;;5094448;28;20114;-77
2022/10/03 04:35:08;;;;;;;11.70;2.00;;;;;;;;;;5095372;28;20103;-78
2022/10/03 04:37:55;;;;;;;8.60;2.28;;;;;;;;;;5094294;28;20439;-77
2022/10/03 04:40:42;;;;;;;7.68;2.28;;;;;;;;;;5096771;28;20131;-78
2022/10/03 04:43:14;;;;;;;9.13;2.30;;;;;;;;;;5097256;28;20505;-78
2022/10/03 04:45:58;;;;;;;7.72;2.03;;;;;;;;;;5096974;28;20051;-78
2022/10/03 04:48:32;;;;;;;13.03;2.53;;;;;;;;;;5096964;28;20056;-77
2022/10/03 04:51:03;;;;;;;12.23;2.10;;;;;;;;;;5096079;28;20321;-78
2022/10/03 04:53:55;;;;;;;12.93;2.60;;;;;;;;;;5095556;28;20039;-77
2022/10/03 04:56:39;;;;;;;15.05;2.75;;;;;;;;;;5095440;28;20024;-78
2022/10/03 04:59:58;;;;;;;13.60;2.70;;;;;;;;;;5095305;28;20039;-78
2022/10/03 05:02:54;;;;;;;16.80;2.40;;;;;;;;;;4996799;28;20053;-78
2022/10/03 05:05:43;;;;;;;8.55;2.58;;;;;;;;;;5094456;28;20039;-78
2022/10/03 05:08:22;;;;;;;13.20;2.30;;;;;;;;;;5095397;28;20032;-77
2022/10/03 05:11:18;;;;;;;9.45;2.30;;;;;;;;;;5094958;28;20035;-77
2022/10/03 05:13:56;;;;;;;14.77;2.72;;;;;;;;;;5092078;28;20064;-77
2022/10/03 05:16:36;;;;;;;7.32;2.15;;;;;;;;;;5095240;28;20496;-78
2022/10/03 05:19:24;;;;;;;14.57;2.55;;;;;;;;;;5094894;28;20553;-78
2022/10/03 05:22:02;;;;;;;9.40;2.20;;;;;;;;;;5095896;28;20069;-78
2022/10/03 05:24:37;;;;;;;14.43;3.08;;;;;;;;;;5096095;28;20040;-78
2022/10/03 05:27:18;;;;;;;14.18;2.50;;;;;;;;;;5094099;28;20020;-77
2022/10/03 05:29:56;;;;;;;9.68;2.30;;;;;;;;;;5094545;28;20020;-78
2022/10/03 05:32:40;;;;;;;10.57;2.33;;;;;;;;;;5094393;28;20086;-78
2022/10/03 05:35:46;;;;;;;8.15;2.00;;;;;;;;;;5094192;28;20020;-78
2022/10/03 05:38:57;;;;;;;13.85;2.60;;;;;;;;;;5065989;28;20373;-78
2022/10/03 05:41:34;;;;;;;12.45;2.30;;;;;;;;;;5095896;28;20031;-78
2022/10/03 05:44:13;;;;;;;8.50;2.40;;;;;;;;;;5094791;28;20024;-78
2022/10/03 05:47:43;;;;;;;5.75;2.15;;;;;;;;;;5096130;28;20032;-78
2022/10/03 05:50:08;;;;;;;10.45;1.88;;;;;;;;;;5095315;28;20136;-78
2022/10/03 05:53:06;;;;;;;11.02;2.50;;;;;;;;;;5095922;28;20039;-77
2022/10/03 05:55:52;;;;;;;8.25;2.47;;;;;;;;;;5092843;28;20028;-78
2022/10/03 05:58:47;;;;;;;8.85;2.90;;;;;;;;;;5093637;28;20085;-77
2022/10/03 06:01:37;;;;;;;8.07;2.30;;;;;;;;;;5094777;28;20074;-78
2022/10/03 06:04:29;;;;;;;12.35;2.60;;;;;;;;;;5095082;28;20032;-79
2022/10/03 06:07:25;;;;;;;8.75;2.25;;;;;;;;;;5097227;28;20030;-78
2022/10/03 06:10:05;;;;;;;12.60;2.65;;;;;;;;;;5096578;28;20389;-77
2022/10/03 06:13:01;;;;;;;9.70;2.00;;;;;;;;;;5093002;28;20027;-78
2022/10/03 06:15:44;;;;;;;13.15;2.33;;;;;;;;;;5092914;28;20058;-78
2022/10/03 06:18:31;;;;;;;6.88;1.90;;;;;;;;;;5093851;28;20081;-76
2022/10/03 06:20:56;;;;;;;9.70;1.83;;;;;;;;;;5092334;28;20062;-78
2022/10/03 06:23:40;;;;;;;10.77;2.63;;;;;;;;;;5094106;28;20022;-77
2022/10/03 06:26:28;;;;;;;12.48;2.45;;;;;;;;;;5095747;28;20339;-79
2022/10/03 06:29:31;;;;;;;7.22;1.77;;;;;;;;;;5095061;28;20024;-78
2022/10/03 06:32:02;;;;;;;10.35;1.88;;;;;;;;;;5094678;28;20477;-78
2022/10/03 06:34:45;;;;;;;9.40;2.08;;;;;;;;;;5095099;28;20032;-79
2022/10/03 06:37:13;;;;;;;9.05;2.05;;;;;;;;;;5095599;28;20024;-78
2022/10/03 06:40:09;;;;;;;9.07;2.17;;;;;;;;;;5093595;28;20021;-79
2022/10/03 06:42:46;;;;;;;10.23;2.30;;;;;;;;;;5095024;28;20036;-77
2022/10/03 06:45:36;;;;;;;10.07;2.00;;;;;;;;;;5093721;28;20035;-78
2022/10/03 06:48:27;;;;;;;9.18;2.10;;;;;;;;;;5095605;28;20389;-78
2022/10/03 06:51:16;;;;;;;7.60;2.30;;;;;;;;;;5095314;28;20046;-79
2022/10/03 06:53:58;;;;;;;10.10;1.83;;;;;;;;;;5097271;28;20046;-77
2022/10/03 06:56:32;;;;;;;10.18;2.20;;;;;;;;;;5102601;28;20020;-78
2022/10/03 06:59:36;;;;;;;11.40;2.08;;;;;;;;;;5101933;28;20035;-78
2022/10/03 07:02:23;;;;;;;11.27;2.22;;;;;;;;;;5056295;28;20040;-77
2022/10/03 07:05:01;;;;;;;6.25;1.90;;;;;;;;;;5101221;28;20035;-77
2022/10/03 07:07:36;;;;;;;6.40;2.10;;;;;;;;;;5100085;28;20028;-78
2022/10/03 07:10:28;;;;;;;9.82;2.38;;;;;;;;;;5099089;28;20481;-77
2022/10/03 07:13:15;;;;;;;15.70;2.50;;;;;;;;;;5098770;28;20020;-75
2022/10/03 07:15:50;;;;;;;8.63;1.92;;;;;;;;;;5099123;28;20024;-77
2022/10/03 07:18:43;;;;;;;12.23;2.67;;;;;;;;;;5093917;28;20024;-74
2022/10/03 07:21:30;;;;;;;12.63;2.20;;;;;;;;;;5092268;28;20111;-75
2022/10/03 07:24:24;;;;;;;12.25;2.28;;;;;;;;;;5093007;28;20480;-74
2022/10/03 07:27:03;;;;;;;11.32;2.33;;;;;;;;;;5096270;28;20071;-74
2022/10/03 07:29:47;;;;;;;10.65;2.33;;;;;;;;;;5096207;28;20024;-75
2022/10/03 07:32:51;;;;;;;9.13;2.20;;;;;;;;;;5096038;28;20107;-75
2022/10/03 07:38:59;;;;;;;11.88;2.42;;;;;;;;;;5096530;28;20449;-75
2022/10/03 07:41:55;;;;;;;8.40;2.40;;;;;;;;;;5096259;28;20027;-76
2022/10/03 07:45:17;;;;;;;8.70;2.40;;;;;;;;;;5095880;28;20485;-75
2022/10/03 07:48:12;;;;;;;8.02;2.40;;;;;;;;;;5013938;28;20052;-77
2022/10/03 07:50:49;;;;;;;12.82;2.70;;;;;;;;;;5013658;28;20588;-76
2022/10/03 07:53:35;;;;;;;12.15;2.85;;;;;;;;;;5084959;28;20047;-76
2022/10/03 07:56:41;;;;;;;11.45;2.95;;;;;;;;;;5095852;28;20048;-75
2022/10/03 07:59:19;;;;;;;8.50;2.53;;;;;;;;;;5095667;28;20023;-75
2022/10/03 08:02:25;;;;;;;12.65;2.47;;;;;;;;;;5095737;28;20051;-76
2022/10/03 08:05:24;;;;;;;9.02;2.00;;;;;;;;;;5096176;28;20019;-76
2022/10/03 08:08:36;;;;;;;9.10;2.30;;;;;;;;;;5094358;28;20051;-76
2022/10/03 08:11:20;;;;;;;7.97;2.30;;;;;;;;;;5095797;28;20024;-76
2022/10/03 08:14:09;;;;;;;9.00;2.40;;;;;;;;;;5094256;28;20051;-76
2022/10/03 08:16:59;;;;;;;10.98;2.22;;;;;;;;;;5095567;28;20093;-76
2022/10/03 08:19:43;;;;;;;7.15;2.72;;;;;;;;;;5095363;28;20024;-76
2022/10/03 08:22:37;;;;;;;9.43;2.03;;;;;;;;;;5095739;28;20038;-75
2022/10/03 08:25:03;;;;;;;;;;;;;;;;;;5095467;28;20027;-75
2022/10/03 08:27:53;;;;;;;7.77;2.17;;;;;;;;;;5093787;28;19908;-75
2022/10/03 08:30:21;;;;;;;6.18;1.98;;;;;;;;;;5094864;28;20024;-75
2022/10/03 08:32:47;;;;;;;4.10;1.77;;;;;;;;;;5095123;28;20028;-76
2022/10/03 08:35:23;;;;;;;10.63;2.55;;;;;;;;;;5094771;28;20016;-76
2022/10/03 08:38:11;;;;;;;8.45;2.20;;;;;;;;;;5095178;28;20116;-75
2022/10/03 08:41:18;;;;;;;14.90;2.28;;;;;;;;;;5093624;28;20024;-77
2022/10/03 08:44:06;;;;;;;4.53;1.65;;;;;;;;;;5093579;28;20024;-76
2022/10/03 08:47:02;;;;;;;10.00;1.90;;;;;;;;;;5094780;28;20020;-75
2022/10/03 08:49:50;;;;;;;7.88;1.70;;;;;;;;;;5095832;28;20030;-76
2022/10/03 08:52:41;;;;;;;6.60;1.90;;;;;;;;;;5093652;28;20051;-76
2022/10/03 08:55:41;;;;;;;7.40;1.92;;;;;;;;;;5094659;28;20031;-76
2022/10/03 08:58:44;;;;;;;11.07;1.80;;;;;;;;;;5094719;28;20089;-76
2022/10/03 09:01:33;;;;;;;6.90;1.70;;;;;;;;;;5094604;28;20045;-76
2022/10/03 09:04:30;;;;;;;7.28;1.60;;;;;;;;;;5094448;28;20028;-76
2022/10/03 09:07:31;;;;;;;8.10;1.90;;;;;;;;;;5077500;28;20392;-75
2022/10/03 09:10:11;;;;;;;9.90;2.08;;;;;;;;;;5094522;28;20073;-76
2022/10/03 09:12:51;;;;;;;9.90;2.25;;;;;;;;;;5093105;28;20078;-75
2022/10/03 09:15:54;;;;;;;7.07;1.95;;;;;;;;;;5094439;28;20026;-77
2022/10/03 09:18:45;;;;;;;8.18;1.90;;;;;;;;;;5094249;28;20027;-76
2022/10/03 09:21:55;;;;;;;5.53;1.73;;;;;;;;;;5094805;28;20028;-76
2022/10/03 09:24:44;;;;;;;7.05;1.63;;;;;;;;;;5054780;28;20032;-74
2022/10/03 09:27:49;;;;;;;6.53;1.83;;;;;;;;;;5094816;28;20491;-77
2022/10/03 09:30:40;;;;;;;9.70;2.35;;;;;;;;;;5094061;28;20055;-77
2022/10/03 09:33:30;;;;;;;7.88;1.85;;;;;;;;;;5094424;28;20032;-77
2022/10/03 09:36:26;;;;;;;10.98;1.80;;;;;;;;;;5094379;28;20534;-76
2022/10/03 09:39:12;;;;;;;9.10;1.75;;;;;;;;;;5094210;28;20381;-78
2022/10/03 09:42:16;;;;;;;8.88;2.00;;;;;;;;;;5093794;28;20039;-76
2022/10/03 09:45:02;;;;;;;6.03;1.63;;;;;;;;;;5087551;28;20036;-75
2022/10/03 09:48:04;;;;;;;6.75;1.15;;;;;;;;;;5093135;28;20020;-76
2022/10/03 09:50:59;;;;;;;9.25;1.65;;;;;;;;;;5093671;28;20514;-76
2022/10/03 09:53:31;;;;;;;;;;;;;;;;;;5094152;28;20036;-77
2022/10/03 09:56:27;;;;;;;8.80;2.05;;;;;;;;;;5093872;28;19958;-74
2022/10/03 09:59:04;;;;;;;5.43;1.40;;;;;;;;;;5093607;28;20031;-76
2022/10/03 10:01:45;;;;;;;8.80;1.73;;;;;;;;;;5093596;28;20020;-78
2022/10/03 10:04:28;;;;;;;11.00;1.80;;;;;;;;;;5093377;28;20107;-76
2022/10/03 10:07:13;;;;;;;7.55;2.03;;;;;;;;;;5093770;28;20072;-77
2022/10/03 10:09:56;;;;;;;9.18;1.67;;;;;;;;;;5093418;28;20028;-76
2022/10/03 10:12:33;;;;;;;8.93;1.70;;;;;;;;;;5092076;28;20030;-76
2022/10/03 10:15:07;;;;;;;6.68;1.50;;;;;;;;;;5092690;28;20380;-76
2022/10/03 10:17:47;;;;;;;7.85;2.00;;;;;;;;;;5093549;28;20528;-77
2022/10/03 10:20:43;;;;;;;6.60;1.45;;;;;;;;;;5093425;28;20103;-76
2022/10/03 10:23:14;;;;;;;11.32;1.77;;;;;;;;;;5093289;28;20485;-76
2022/10/03 10:25:42;;;;;;;3.83;1.15;;;;;;;;;;5093108;28;20032;-76
2022/10/03 10:28:43;;;;;;;6.85;1.65;;;;;;;;;;5093160;28;20053;-77
2022/10/03 10:31:41;;;;;;;8.18;1.55;;;;;;;;;;5093203;28;20104;-76
2022/10/03 10:34:25;;;;;;;8.05;1.85;;;;;;;;;;5091923;28;20088;-77
2022/10/03 10:37:18;;;;;;;6.65;1.60;;;;;;;;;;5092988;28;20023;-76
2022/10/03 10:40:21;;;;;;;6.70;1.30;;;;;;;;;;5092670;28;20403;-76
2022/10/03 10:43:26;;;;;;;10.35;1.90;;;;;;;;;;5092978;28;20059;-76
2022/10/03 10:46:17;;;;;;;7.72;1.95;;;;;;;;;;5092679;28;20056;-76
2022/10/03 10:49:07;;;;;;;8.07;1.77;;;;;;;;;;5086237;28;20111;-77
2022/10/03 10:52:14;;;;;;;7.05;1.30;;;;;;;;;;5093304;28;20023;-76
2022/10/03 10:55:04;;;;;;;8.27;1.50;;;;;;;;;;5093009;28;20556;-76
2022/10/03 10:58:15;;;;;;;7.65;1.90;;;;;;;;;;5091462;28;20063;-76
2022/10/03 11:00:52;;;;;;;11.93;2.33;;;;;;;;;;5068904;22;20128;-76
2022/10/03 11:03:41;;;;;;;6.50;1.38;;;;;;;;;;5017256;28;20036;-76
2022/10/03 11:06:44;;;;;;;9.35;1.77;;;;;;;;;;5016870;28;20034;-76
2022/10/03 11:09:34;;;;;;;12.65;1.70;;;;;;;;;;5031735;28;20048;-77
2022/10/03 11:12:37;;;;;;;8.57;1.42;;;;;;;;;;4997133;28;20023;-76
2022/10/03 11:15:42;;;;;;;6.10;1.60;;;;;;;;;;4996833;28;20026;-76
2022/10/03 11:18:42;;;;;;;6.95;1.20;;;;;;;;;;4997202;28;20026;-76
2022/10/03 11:21:45;;;;;;;4.40;1.17;;;;;;;;;;4997240;28;20045;-78
2022/10/03 11:24:46;;;;;;;8.23;1.30;;;;;;;;;;5012230;28;20030;-75
2022/10/03 11:27:17;;;;;;;9.15;1.42;;;;;;;;;;4997199;28;20061;-77
2022/10/03 11:30:03;;;;;;;8.15;1.60;;;;;;;;;;4996858;28;20472;-77
2022/10/03 11:32:56;;;;;;;8.18;1.40;;;;;;;;;;4997164;28;20026;-77
2022/10/03 11:35:56;;;;;;;3.03;0.88;;;;;;;;;;5012479;28;20031;-79
2022/10/03 11:38:29;;;;;;;4.15;1.15;;;;;;;;;;4997170;28;20113;-85
2022/10/03 11:41:20;;;;;;;9.82;1.40;;;;;;;;;;4997848;28;20040;-78
2022/10/03 11:43:48;;;;;;;6.82;1.40;;;;;;;;;;4974458;28;20385;-75
2022/10/03 11:46:26;;;;;;;7.20;1.77;;;;;;;;;;5011285;28;20026;-74
2022/10/03 11:48:55;;;;;;;3.10;1.13;;;;;;;;;;4996302;28;20037;-74
2022/10/03 11:51:32;;;;;;;7.00;1.50;;;;;;;;;;4995970;28;20040;-74
2022/10/03 11:54:18;;;;;;;6.72;1.63;;;;;;;;;;4996293;28;20105;-74
2022/10/03 11:57:18;;;;;;;10.02;1.55;;;;;;;;;;4995960;28;20034;-74
2022/10/03 11:59:56;;;;;;;6.15;1.25;;;;;;;;;;4971390;28;20065;-74
2022/10/03 12:02:36;;;;;;;5.97;1.35;;;;;;;;;;4996162;28;20072;-74
2022/10/03 12:05:27;;;;;;;13.85;1.45;;;;;;;;;;4996365;28;20030;-73
2022/10/03 12:11:16;;;;;;;8.00;1.42;;;;;;;;;;4995452;28;20150;-75
2022/10/03 12:14:27;;;;;;;8.65;1.50;;;;;;;;;;4995758;28;20027;-75
2022/10/03 12:17:00;;;;;;;7.43;1.38;;;;;;;;;;4936419;29;20036;-76
2022/10/03 12:20:01;;;;;;;7.43;1.88;;;;;;;;;;4987294;28;20030;-78
2022/10/03 12:22:48;;;;;;;6.75;1.60;;;;;;;;;;4995854;28;20022;-76
2022/10/03 12:25:19;;;;;;;7.45;1.60;;;;;;;;;;4995976;28;20022;-76
2022/10/03 12:27:56;;;;;;;6.70;1.30;;;;;;;;;;4996609;28;20026;-76
2022/10/03 12:30:23;;;;;;;5.13;1.17;;;;;;;;;;4996030;28;20091;-77
2022/10/03 12:33:13;;;;;;;6.10;1.27;;;;;;;;;;4995898;28;20053;-76
2022/10/03 12:36:07;;;;;;;5.38;1.15;;;;;;;;;;4996008;28;20031;-76
2022/10/03 12:39:00;;;;;;;4.85;1.38;;;;;;;;;;4943251;28;20035;-76
2022/10/03 12:42:04;;;;;;;10.23;1.48;;;;;;;;;;4995869;28;20514;-76
2022/10/03 12:45:01;;;;;;;5.72;1.42;;;;;;;;;;4995894;28;20022;-76
2022/10/03 12:48:04;;;;;;;7.05;1.15;;;;;;;;;;4991461;28;20045;-76
2022/10/03 12:50:41;;;;;;;7.53;1.35;;;;;;;;;;4995722;28;20022;-78
2022/10/03 12:53:19;;;;;;;5.45;1.33;;;;;;;;;;4995834;28;20037;-76
2022/10/03 12:56:03;;;;;;;8.35;1.30;;;;;;;;;;4996178;28;20413;-76
2022/10/03 12:58:47;;;;;;;;;;;;;;;;;;4995954;28;20101;-75
2022/10/03 13:01:32;;;;;;;9.45;1.27;;;;;;;;;;4995257;28;19917;-76
2022/10/03 13:04:19;;;;;;;6.97;1.20;;;;;;;;;;4995727;28;20030;-75
2022/10/03 13:07:19;;;;;;;6.93;1.30;;;;;;;;;;5010387;28;20121;-77
2022/10/03 13:10:08;;;;;;;8.18;1.23;;;;;;;;;;4995106;28;20029;-75
2022/10/03 13:12:59;;;;;;;9.43;1.35;;;;;;;;;;4995097;28;20019;-76
2022/10/03 13:15:56;;;;;;;6.65;1.35;;;;;;;;;;4995636;28;20116;-75
2022/10/03 13:18:37;;;;;;;6.57;1.63;;;;;;;;;;4995261;28;20027;-75
2022/10/03 13:21:02;;;;;;;8.35;1.40;;;;;;;;;;5009560;28;20496;-76
2022/10/03 13:23:52;;;;;;;5.63;1.30;;;;;;;;;;5009488;28;20030;-76
2022/10/03 13:26:43;;;;;;;3.78;1.40;;;;;;;;;;5009905;28;20284;-76
2022/10/03 13:29:25;;;;;;;7.05;1.52;;;;;;;;;;4995051;28;20037;-75
2022/10/03 13:32:26;;;;;;;7.82;1.30;;;;;;;;;;5009854;28;20488;-76
2022/10/03 13:38:16;;;;;;;8.13;1.33;;;;;;;;;;4994706;28;20033;-76
2022/10/03 13:41:04;;;;;;;6.10;1.50;;;;;;;;;;4994730;28;20031;-74
2022/10/03 13:43:36;;;;;;;7.03;1.08;;;;;;;;;;4994166;28;20038;-76
2022/10/03 13:46:13;;;;;;;9.15;1.40;;;;;;;;;;4994734;28;20153;-76
2022/10/03 13:48:45;;;;;;;4.35;1.15;;;;;;;;;;4994824;28;20034;-75
2022/10/03 13:51:33;;;;;;;8.52;1.33;;;;;;;;;;4994704;28;20026;-76
2022/10/03 13:54:06;;;;;;;4.70;1.20;;;;;;;;;;4993316;28;20026;-76
2022/10/03 13:56:53;;;;;;;5.00;0.90;;;;;;;;;;4993436;28;20093;-76
2022/10/03 13:59:26;;;;;;;6.85;1.45;;;;;;;;;;4994679;28;20026;-75
2022/10/03 14:02:08;;;;;;;9.15;1.30;;;;;;;;;;4994459;28;20157;-76
2022/10/03 14:04:36;;;;;;;5.50;1.27;;;;;;;;;;4994397;28;20033;-76
2022/10/03 14:07:35;;;;;;;7.05;1.63;;;;;;;;;;5009264;28;20395;-78
2022/10/03 14:10:32;;;;;;;6.30;1.33;;;;;;;;;;5009340;28;20022;-77
2022/10/03 14:13:31;;;;;;;4.72;1.05;;;;;;;;;;4994246;28;20034;-76
2022/10/03 14:16:19;;;;;;;5.97;1.30;;;;;;;;;;4994452;28;20412;-76
2022/10/03 14:19:00;;;;;;;8.73;1.15;;;;;;;;;;4994179;28;20022;-76
2022/10/03 14:21:50;;;;;;;5.10;1.38;;;;;;;;;;5009053;28;20377;-76
2022/10/03 14:24:21;;;;;;;4.72;1.38;;;;;;;;;;4994071;28;20454;-75
2022/10/03 14:26:49;;;;;;;6.88;1.30;;;;;;;;;;4994177;28;20065;-76
2022/10/03 14:29:27;;;;;;;5.18;1.50;;;;;;;;;;4994044;28;20098;-75
2022/10/03 14:32:20;;;;;;;5.03;1.30;;;;;;;;;;4993928;28;20038;-76
2022/10/03 14:34:58;;;;;;;6.60;1.55;;;;;;;;;;4994710;28;20018;-77
2022/10/03 14:37:34;;;;;;;7.22;1.38;;;;;;;;;;4994053;28;20039;-77
2022/10/03 14:40:34;;;;;;;6.63;1.45;;;;;;;;;;4993779;28;20019;-76
2022/10/03 14:43:35;;;;;;;7.63;1.50;;;;;;;;;;4984040;28;20496;-76
2022/10/03 14:46:01;;;;;;;4.68;1.00;;;;;;;;;;4983733;28;20373;-76
2022/10/03 14:48:33;;;;;;;5.63;1.30;;;;;;;;;;4994013;28;20026;-76
2022/10/03 14:51:09;;;;;;;9.95;1.83;;;;;;;;;;5008926;28;20026;-76
2022/10/03 14:53:38;;;;;;;5.07;1.63;;;;;;;;;;4994007;28;20026;-76
2022/10/03 14:56:07;;;;;;;4.28;1.30;;;;;;;;;;5008811;28;20030;-77
2022/10/03 14:58:43;;;;;;;4.85;1.23;;;;;;;;;;4993635;28;20026;-76
2022/10/03 15:01:15;;;;;;;5.07;1.40;;;;;;;;;;4993509;28;20101;-75
2022/10/03 15:04:05;;;;;;;5.78;1.30;;;;;;;;;;4993482;28;20057;-76
2022/10/03 15:06:52;;;;;;;6.93;1.40;;;;;;;;;;4992188;28;20027;-76
2022/10/03 15:09:26;;;;;;;4.75;1.20;;;;;;;;;;4992179;28;20018;-76
2022/10/03 15:12:00;;;;;;;;;;;;;;;;;;4994061;28;20030;-75
2022/10/03 15:14:29;;;;;;;6.93;1.60;;;;;;;;;;4993522;28;19910;-77
2022/10/03 15:16:58;;;;;;;5.18;1.35;;;;;;;;;;4993624;28;20033;-76
2022/10/03 15:19:35;;;;;;;2.83;0.88;;;;;;;;;;4993559;28;20033;-76
2022/10/03 15:22:25;;;;;;;4.93;1.30;;;;;;;;;;4993711;28;20158;-76
2022/10/03 15:24:54;;;;;;;6.82;1.30;;;;;;;;;;4992283;28;20026;-76
2022/10/03 15:27:22;;;;;;;2.95;1.20;;;;;;;;;;4993579;28;20062;-76
2022/10/03 15:29:53;;;;;;;5.97;1.20;;;;;;;;;;4993338;28;20503;-76
2022/10/03 15:32:24;;;;;;;6.13;1.48;;;;;;;;;;4991996;28;20030;-75
2022/10/03 15:34:54;;;;;;;3.08;1.10;;;;;;;;;;4992088;28;20495;-75
2022/10/03 15:37:22;;;;;;;5.45;1.00;;;;;;;;;;4993539;28;20089;-76
2022/10/03 15:39:51;;;;;;;4.28;1.10;;;;;;;;;;4993149;28;20030;-76
2022/10/03 15:42:16;;;;;;;4.00;1.15;;;;;;;;;;4991887;28;20031;-76
2022/10/03 15:44:55;;;;;;;4.50;1.20;;;;;;;;;;4993827;28;20026;-76
2022/10/03 15:47:25;;;;;;;5.72;1.10;;;;;;;;;;4996718;28;20343;-77
2022/10/03 15:49:59;;;;;;;5.85;1.30;;;;;;;;;;4995455;28;20018;-76
2022/10/03 15:52:34;;;;;;;6.53;1.35;;;;;;;;;;4996711;28;20049;-75
2022/10/03 15:55:04;;;;;;;7.38;1.25;;;;;;;;;;4997058;28;20026;-75
2022/10/03 15:57:33;;;;;;;4.57;1.48;;;;;;;;;;4999658;28;20034;-76
2022/10/03 15:59:59;;;;;;;6.90;1.30;;;;;;;;;;4997534;28;20029;-76
2022/10/03 16:02:30;;;;;;;7.80;1.42;;;;;;;;;;4998188;28;20030;-76
2022/10/03 16:04:56;;;;;;;9.55;1.77;;;;;;;;;;4997074;28;20101;-77
2022/10/03 16:07:50;;;;;;;7.43;1.77;;;;;;;;;;4996582;28;20078;-75
2022/10/03 16:10:40;;;;;;;6.43;1.30;;;;;;;;;;4996592;28;20174;-75
2022/10/03 16:13:17;;;;;;;9.43;1.92;;;;;;;;;;4995898;28;20042;-76
2022/10/03 16:16:18;;;;;;;5.15;1.23;;;;;;;;;;4996541;28;20030;-75
2022/10/03 16:18:52;;;;;;;5.38;1.33;;;;;;;;;;5011433;28;20022;-76
2022/10/03 16:21:47;;;;;;;9.30;1.45;;;;;;;;;;4996089;28;20042;-76
2022/10/03 16:24:25;;;;;;;3.83;1.30;;;;;;;;;;4995973;28;20065;-77
2022/10/03 16:26:54;;;;;;;5.47;1.50;;;;;;;;;;5011017;28;20436;-76
2022/10/03 16:29:32;;;;;;;8.65;1.55;;;;;;;;;;4996017;28;20391;-76
2022/10/03 16:32:06;;;;;;;5.10;1.55;;;;;;;;;;4994615;28;20039;-76
2022/10/03 16:34:34;;;;;;;8.02;1.40;;;;;;;;;;4995789;28;20452;-76
2022/10/03 16:37:00;;;;;;;5.13;1.42;;;;;;;;;;4994625;28;20026;-76
2022/10/03 16:39:32;;;;;;;5.50;1.50;;;;;;;;;;4995796;28;20041;-77
2022/10/03 16:41:59;;;;;;;7.75;1.60;;;;;;;;;;4996595;28;20505;-76
2022/10/03 16:44:33;;;;;;;8.98;1.52;;;;;;;;;;4995867;28;20038;-76
2022/10/03 16:47:02;;;;;;;10.25;1.67;;;;;;;;;;4996155;28;20522;-76